sensor_id;sensor_type;location;lat;lon;timestamp;temperature;humidity
63219;DHT22;49320;52.512;13.448;2022-08-23T00:02:25;22.60;60.50
63219;DHT22;49320;52.512;13.448;2022-08-23T00:04:53;22.60;60.60
63219;DHT22;49320;52.512;13.448;2022-08-23T00:07:36;22.60;60.80
63219;DHT22;49320;52.512;13.448;2022-08-23T00:10:10;22.60;60.90
63219;DHT22;49320;52.512;13.448;2022-08-23T00:12:39;22.50;60.90
63219;DHT22;49320;52.512;13.448;2022-08-23T00:15:08;22.60;61.00
63219;DHT22;49320;52.512;13.448;2022-08-23T00:17:38;22.50;61.10
63219;DHT22;49320;52.512;13.448;2022-08-23T00:20:06;22.50;61.20
63219;DHT22;49320;52.512;13.448;2022-08-23T00:22:36;22.40;61.40
63219;DHT22;49320;52.512;13.448;2022-08-23T00:25:05;22.40;60.70
63219;DHT22;49320;52.512;13.448;2022-08-23T00:27:33;22.40;61.50
63219;DHT22;49320;52.512;13.448;2022-08-23T00:30:02;22.40;61.70
63219;DHT22;49320;52.512;13.448;2022-08-23T00:32:35;22.40;61.70
63219;DHT22;49320;52.512;13.448;2022-08-23T00:35:05;22.30;61.80
63219;DHT22;49320;52.512;13.448;2022-08-23T00:37:32;22.30;61.80
63219;DHT22;49320;52.512;13.448;2022-08-23T00:40:00;22.10;61.60
63219;DHT22;49320;52.512;13.448;2022-08-23T00:42:39;22.30;61.90
63219;DHT22;49320;52.512;13.448;2022-08-23T00:45:50;22.30;62.50
63219;DHT22;49320;52.512;13.448;2022-08-23T00:48:47;22.30;63.10
63219;DHT22;49320;52.512;13.448;2022-08-23T00:51:19;22.30;61.80
63219;DHT22;49320;52.512;13.448;2022-08-23T00:54:19;22.30;62.20
63219;DHT22;49320;52.512;13.448;2022-08-23T00:56:48;22.20;61.80
63219;DHT22;49320;52.512;13.448;2022-08-23T00:59:17;22.20;62.10
63219;DHT22;49320;52.512;13.448;2022-08-23T01:01:44;22.20;62.00
63219;DHT22;49320;52.512;13.448;2022-08-23T01:04:12;22.20;62.20
63219;DHT22;49320;52.512;13.448;2022-08-23T01:07:02;22.20;62.20
63219;DHT22;49320;52.512;13.448;2022-08-23T01:09:32;22.20;63.00
63219;DHT22;49320;52.512;13.448;2022-08-23T01:12:06;22.20;62.10
63219;DHT22;49320;52.512;13.448;2022-08-23T01:14:46;22.20;62.50
63219;DHT22;49320;52.512;13.448;2022-08-23T01:17:33;22.20;62.80
63219;DHT22;49320;52.512;13.448;2022-08-23T01:20:17;22.20;63.10
63219;DHT22;49320;52.512;13.448;2022-08-23T01:22:59;22.20;63.10
63219;DHT22;49320;52.512;13.448;2022-08-23T01:25:32;22.20;62.70
63219;DHT22;49320;52.512;13.448;2022-08-23T01:27:59;22.10;62.50
63219;DHT22;49320;52.512;13.448;2022-08-23T01:30:29;22.20;62.40
63219;DHT22;49320;52.512;13.448;2022-08-23T01:33:01;22.20;62.50
63219;DHT22;49320;52.512;13.448;2022-08-23T01:35:42;22.10;62.40
63219;DHT22;49320;52.512;13.448;2022-08-23T01:38:12;22.10;62.60
63219;DHT22;49320;52.512;13.448;2022-08-23T01:40:41;22.10;62.50
63219;DHT22;49320;52.512;13.448;2022-08-23T01:43:09;22.10;62.60
63219;DHT22;49320;52.512;13.448;2022-08-23T01:45:37;22.10;62.60
63219;DHT22;49320;52.512;13.448;2022-08-23T01:48:05;22.00;62.70
63219;DHT22;49320;52.512;13.448;2022-08-23T01:50:33;22.10;62.70
63219;DHT22;49320;52.512;13.448;2022-08-23T01:53:01;22.00;62.70
63219;DHT22;49320;52.512;13.448;2022-08-23T01:55:28;22.00;62.70
63219;DHT22;49320;52.512;13.448;2022-08-23T01:57:57;22.00;63.00
63219;DHT22;49320;52.512;13.448;2022-08-23T02:00:30;22.00;63.00
63219;DHT22;49320;52.512;13.448;2022-08-23T02:02:59;22.00;63.10
63219;DHT22;49320;52.512;13.448;2022-08-23T02:05:28;22.10;62.70
63219;DHT22;49320;52.512;13.448;2022-08-23T02:07:55;22.00;62.80
63219;DHT22;49320;52.512;13.448;2022-08-23T02:10:22;22.00;62.70
63219;DHT22;49320;52.512;13.448;2022-08-23T02:12:49;22.00;62.50
63219;DHT22;49320;52.512;13.448;2022-08-23T02:15:16;22.00;62.70
63219;DHT22;49320;52.512;13.448;2022-08-23T02:17:43;22.00;62.70
63219;DHT22;49320;52.512;13.448;2022-08-23T02:20:10;21.90;62.60
63219;DHT22;49320;52.512;13.448;2022-08-23T02:22:37;22.00;62.80
63219;DHT22;49320;52.512;13.448;2022-08-23T02:25:05;22.00;62.80
63219;DHT22;49320;52.512;13.448;2022-08-23T02:27:33;21.90;62.80
63219;DHT22;49320;52.512;13.448;2022-08-23T02:30:00;22.00;62.80
63219;DHT22;49320;52.512;13.448;2022-08-23T02:32:27;21.90;62.80
63219;DHT22;49320;52.512;13.448;2022-08-23T02:34:54;21.90;62.70
63219;DHT22;49320;52.512;13.448;2022-08-23T02:37:30;21.90;62.70
63219;DHT22;49320;52.512;13.448;2022-08-23T02:39:58;21.90;62.70
63219;DHT22;49320;52.512;13.448;2022-08-23T02:42:25;21.90;62.60
63219;DHT22;49320;52.512;13.448;2022-08-23T02:44:52;22.00;62.70
63219;DHT22;49320;52.512;13.448;2022-08-23T02:47:19;21.90;62.70
63219;DHT22;49320;52.512;13.448;2022-08-23T02:49:45;22.00;62.70
63219;DHT22;49320;52.512;13.448;2022-08-23T02:52:13;21.90;62.80
63219;DHT22;49320;52.512;13.448;2022-08-23T02:54:39;21.80;62.80
63219;DHT22;49320;52.512;13.448;2022-08-23T02:57:06;21.90;63.00
63219;DHT22;49320;52.512;13.448;2022-08-23T02:59:33;21.90;63.00
63219;DHT22;49320;52.512;13.448;2022-08-23T03:02:00;21.80;63.00
63219;DHT22;49320;52.512;13.448;2022-08-23T03:04:27;21.80;63.10
63219;DHT22;49320;52.512;13.448;2022-08-23T03:06:54;21.70;63.10
63219;DHT22;49320;52.512;13.448;2022-08-23T03:09:21;21.90;63.30
63219;DHT22;49320;52.512;13.448;2022-08-23T03:11:49;21.80;63.10
63219;DHT22;49320;52.512;13.448;2022-08-23T03:14:16;21.80;63.30
63219;DHT22;49320;52.512;13.448;2022-08-23T03:16:43;21.80;63.30
63219;DHT22;49320;52.512;13.448;2022-08-23T03:19:10;21.90;63.30
63219;DHT22;49320;52.512;13.448;2022-08-23T03:21:37;22.00;63.60
63219;DHT22;49320;52.512;13.448;2022-08-23T03:24:04;21.80;63.50
63219;DHT22;49320;52.512;13.448;2022-08-23T03:26:36;21.80;63.50
63219;DHT22;49320;52.512;13.448;2022-08-23T03:29:03;21.80;63.60
63219;DHT22;49320;52.512;13.448;2022-08-23T03:31:30;21.80;63.60
63219;DHT22;49320;52.512;13.448;2022-08-23T03:33:57;21.80;63.80
63219;DHT22;49320;52.512;13.448;2022-08-23T03:36:24;21.80;63.80
63219;DHT22;49320;52.512;13.448;2022-08-23T03:38:54;21.70;63.70
63219;DHT22;49320;52.512;13.448;2022-08-23T03:41:21;21.80;64.00
63219;DHT22;49320;52.512;13.448;2022-08-23T03:43:48;21.80;64.00
63219;DHT22;49320;52.512;13.448;2022-08-23T03:46:16;21.80;64.00
63219;DHT22;49320;52.512;13.448;2022-08-23T03:48:51;21.80;64.10
63219;DHT22;49320;52.512;13.448;2022-08-23T03:51:22;21.80;64.30
63219;DHT22;49320;52.512;13.448;2022-08-23T03:53:50;21.80;64.30
63219;DHT22;49320;52.512;13.448;2022-08-23T03:56:22;21.80;64.30
63219;DHT22;49320;52.512;13.448;2022-08-23T03:58:52;21.90;64.80
63219;DHT22;49320;52.512;13.448;2022-08-23T04:01:20;21.80;64.30
63219;DHT22;49320;52.512;13.448;2022-08-23T04:03:53;21.80;64.40
63219;DHT22;49320;52.512;13.448;2022-08-23T04:06:20;21.80;64.50
63219;DHT22;49320;52.512;13.448;2022-08-23T04:08:47;21.80;64.70
63219;DHT22;49320;52.512;13.448;2022-08-23T04:11:13;21.90;64.60
63219;DHT22;49320;52.512;13.448;2022-08-23T04:13:40;21.80;64.50
63219;DHT22;49320;52.512;13.448;2022-08-23T04:16:08;21.80;64.60
63219;DHT22;49320;52.512;13.448;2022-08-23T04:18:35;21.80;64.60
63219;DHT22;49320;52.512;13.448;2022-08-23T04:21:07;21.80;64.70
63219;DHT22;49320;52.512;13.448;2022-08-23T04:23:38;21.80;65.00
63219;DHT22;49320;52.512;13.448;2022-08-23T04:26:06;21.80;64.80
63219;DHT22;49320;52.512;13.448;2022-08-23T04:28:35;21.80;64.90
63219;DHT22;49320;52.512;13.448;2022-08-23T04:31:03;21.80;65.00
63219;DHT22;49320;52.512;13.448;2022-08-23T04:33:31;21.80;64.90
63219;DHT22;49320;52.512;13.448;2022-08-23T04:36:01;21.80;65.10
63219;DHT22;49320;52.512;13.448;2022-08-23T04:38:29;21.80;65.20
63219;DHT22;49320;52.512;13.448;2022-08-23T04:40:55;21.80;65.20
63219;DHT22;49320;52.512;13.448;2022-08-23T04:43:42;21.70;65.30
63219;DHT22;49320;52.512;13.448;2022-08-23T04:46:12;21.80;65.40
63219;DHT22;49320;52.512;13.448;2022-08-23T04:48:42;21.80;65.30
63219;DHT22;49320;52.512;13.448;2022-08-23T04:51:10;21.70;65.30
63219;DHT22;49320;52.512;13.448;2022-08-23T04:53:38;21.80;65.60
63219;DHT22;49320;52.512;13.448;2022-08-23T04:56:06;21.80;65.60
63219;DHT22;49320;52.512;13.448;2022-08-23T04:58:35;21.80;65.60
63219;DHT22;49320;52.512;13.448;2022-08-23T05:01:06;21.70;65.60
63219;DHT22;49320;52.512;13.448;2022-08-23T05:03:34;21.80;65.80
63219;DHT22;49320;52.512;13.448;2022-08-23T05:06:03;21.90;65.90
63219;DHT22;49320;52.512;13.448;2022-08-23T05:08:32;21.80;65.90
63219;DHT22;49320;52.512;13.448;2022-08-23T05:11:05;21.80;65.80
63219;DHT22;49320;52.512;13.448;2022-08-23T05:13:35;21.80;66.10
63219;DHT22;49320;52.512;13.448;2022-08-23T05:16:02;21.70;65.80
63219;DHT22;49320;52.512;13.448;2022-08-23T05:18:29;21.90;65.90
63219;DHT22;49320;52.512;13.448;2022-08-23T05:20:57;21.90;65.90
63219;DHT22;49320;52.512;13.448;2022-08-23T05:23:25;21.90;65.80
63219;DHT22;49320;52.512;13.448;2022-08-23T05:25:58;21.90;65.90
63219;DHT22;49320;52.512;13.448;2022-08-23T05:28:33;21.90;66.10
63219;DHT22;49320;52.512;13.448;2022-08-23T05:31:07;21.90;66.50
63219;DHT22;49320;52.512;13.448;2022-08-23T05:33:38;21.90;66.30
63219;DHT22;49320;52.512;13.448;2022-08-23T05:36:08;21.90;66.20
63219;DHT22;49320;52.512;13.448;2022-08-23T05:38:37;21.90;66.40
63219;DHT22;49320;52.512;13.448;2022-08-23T05:41:05;21.90;66.20
63219;DHT22;49320;52.512;13.448;2022-08-23T05:43:33;22.00;66.20
63219;DHT22;49320;52.512;13.448;2022-08-23T05:46:09;22.20;66.50
63219;DHT22;49320;52.512;13.448;2022-08-23T05:48:40;22.00;67.40
63219;DHT22;49320;52.512;13.448;2022-08-23T05:51:20;22.00;66.30
63219;DHT22;49320;52.512;13.448;2022-08-23T05:53:58;22.00;66.70
63219;DHT22;49320;52.512;13.448;2022-08-23T05:56:36;22.00;66.50
63219;DHT22;49320;52.512;13.448;2022-08-23T05:59:14;22.00;66.90
63219;DHT22;49320;52.512;13.448;2022-08-23T06:01:42;22.10;66.50
63219;DHT22;49320;52.512;13.448;2022-08-23T06:04:11;22.10;66.40
63219;DHT22;49320;52.512;13.448;2022-08-23T06:06:40;22.10;66.60
63219;DHT22;49320;52.512;13.448;2022-08-23T06:09:10;22.10;66.60
63219;DHT22;49320;52.512;13.448;2022-08-23T06:11:41;22.20;66.70
63219;DHT22;49320;52.512;13.448;2022-08-23T06:14:10;22.20;66.60
63219;DHT22;49320;52.512;13.448;2022-08-23T06:16:43;22.10;66.50
63219;DHT22;49320;52.512;13.448;2022-08-23T06:19:12;22.30;66.80
63219;DHT22;49320;52.512;13.448;2022-08-23T06:21:40;22.30;66.50
63219;DHT22;49320;52.512;13.448;2022-08-23T06:24:08;22.40;66.50
63219;DHT22;49320;52.512;13.448;2022-08-23T06:26:38;22.40;66.50
63219;DHT22;49320;52.512;13.448;2022-08-23T06:29:10;22.50;66.60
63219;DHT22;49320;52.512;13.448;2022-08-23T06:31:41;22.50;66.40
63219;DHT22;49320;52.512;13.448;2022-08-23T06:34:30;22.60;66.40
63219;DHT22;49320;52.512;13.448;2022-08-23T06:37:10;22.70;66.50
63219;DHT22;49320;52.512;13.448;2022-08-23T06:39:42;22.70;66.20
63219;DHT22;49320;52.512;13.448;2022-08-23T06:42:12;22.80;66.00
63219;DHT22;49320;52.512;13.448;2022-08-23T06:45:02;22.80;66.00
63219;DHT22;49320;52.512;13.448;2022-08-23T06:47:29;22.80;65.90
63219;DHT22;49320;52.512;13.448;2022-08-23T06:49:57;22.90;65.90
63219;DHT22;49320;52.512;13.448;2022-08-23T06:52:25;23.00;65.90
63219;DHT22;49320;52.512;13.448;2022-08-23T06:54:53;23.00;65.90
63219;DHT22;49320;52.512;13.448;2022-08-23T06:57:20;23.10;65.80
63219;DHT22;49320;52.512;13.448;2022-08-23T06:59:48;23.10;65.80
63219;DHT22;49320;52.512;13.448;2022-08-23T07:02:16;23.20;65.80
63219;DHT22;49320;52.512;13.448;2022-08-23T07:04:43;23.30;65.70
63219;DHT22;49320;52.512;13.448;2022-08-23T07:07:11;23.40;65.60
63219;DHT22;49320;52.512;13.448;2022-08-23T07:09:39;23.40;65.50
63219;DHT22;49320;52.512;13.448;2022-08-23T07:12:06;23.50;65.40
63219;DHT22;49320;52.512;13.448;2022-08-23T07:14:36;23.60;65.40
63219;DHT22;49320;52.512;13.448;2022-08-23T07:17:03;23.60;65.40
63219;DHT22;49320;52.512;13.448;2022-08-23T07:19:32;23.70;65.30
63219;DHT22;49320;52.512;13.448;2022-08-23T07:22:01;23.70;65.10
63219;DHT22;49320;52.512;13.448;2022-08-23T07:24:30;23.80;65.10
63219;DHT22;49320;52.512;13.448;2022-08-23T07:27:01;23.90;65.10
63219;DHT22;49320;52.512;13.448;2022-08-23T07:29:37;24.00;65.10
63219;DHT22;49320;52.512;13.448;2022-08-23T07:32:05;24.00;65.00
63219;DHT22;49320;52.512;13.448;2022-08-23T07:34:33;24.00;64.80
63219;DHT22;49320;52.512;13.448;2022-08-23T07:36:59;24.10;64.90
63219;DHT22;49320;52.512;13.448;2022-08-23T07:39:27;24.10;64.80
63219;DHT22;49320;52.512;13.448;2022-08-23T07:42:00;24.20;64.70
63219;DHT22;49320;52.512;13.448;2022-08-23T07:44:49;24.30;64.80
63219;DHT22;49320;52.512;13.448;2022-08-23T07:47:18;24.30;64.60
63219;DHT22;49320;52.512;13.448;2022-08-23T07:49:46;24.40;64.50
63219;DHT22;49320;52.512;13.448;2022-08-23T07:52:12;24.40;64.40
63219;DHT22;49320;52.512;13.448;2022-08-23T07:54:39;24.50;64.40
63219;DHT22;49320;52.512;13.448;2022-08-23T07:57:11;24.50;64.30
63219;DHT22;49320;52.512;13.448;2022-08-23T07:59:44;24.60;64.20
63219;DHT22;49320;52.512;13.448;2022-08-23T08:02:14;24.70;64.20
63219;DHT22;49320;52.512;13.448;2022-08-23T08:04:50;24.80;64.00
63219;DHT22;49320;52.512;13.448;2022-08-23T08:07:27;24.80;63.60
63219;DHT22;49320;52.512;13.448;2022-08-23T08:10:06;25.00;63.00
63219;DHT22;49320;52.512;13.448;2022-08-23T08:12:47;24.90;63.60
63219;DHT22;49320;52.512;13.448;2022-08-23T08:15:16;25.10;63.50
63219;DHT22;49320;52.512;13.448;2022-08-23T08:17:48;25.10;63.30
63219;DHT22;49320;52.512;13.448;2022-08-23T08:20:27;25.10;62.60
63219;DHT22;49320;52.512;13.448;2022-08-23T08:22:54;25.10;62.60
63219;DHT22;49320;52.512;13.448;2022-08-23T08:25:25;25.10;62.60
63219;DHT22;49320;52.512;13.448;2022-08-23T08:27:52;25.20;62.70
63219;DHT22;49320;52.512;13.448;2022-08-23T08:30:19;25.10;62.40
63219;DHT22;49320;52.512;13.448;2022-08-23T08:32:46;25.30;62.30
63219;DHT22;49320;52.512;13.448;2022-08-23T08:35:13;25.40;62.20
63219;DHT22;49320;52.512;13.448;2022-08-23T08:37:40;25.40;62.00
63219;DHT22;49320;52.512;13.448;2022-08-23T08:40:07;25.40;61.80
63219;DHT22;49320;52.512;13.448;2022-08-23T08:43:06;25.40;61.70
63219;DHT22;49320;52.512;13.448;2022-08-23T08:46:06;25.50;61.80
63219;DHT22;49320;52.512;13.448;2022-08-23T08:48:44;25.60;61.60
63219;DHT22;49320;52.512;13.448;2022-08-23T08:54:17;25.70;61.20
63219;DHT22;49320;52.512;13.448;2022-08-23T08:56:53;25.70;61.20
63219;DHT22;49320;52.512;13.448;2022-08-23T08:59:35;25.70;61.00
63219;DHT22;49320;52.512;13.448;2022-08-23T09:02:16;25.80;60.70
63219;DHT22;49320;52.512;13.448;2022-08-23T09:05:16;25.80;60.60
63219;DHT22;49320;52.512;13.448;2022-08-23T09:10:50;25.90;60.40
63219;DHT22;49320;52.512;13.448;2022-08-23T09:16:53;26.00;59.60
63219;DHT22;49320;52.512;13.448;2022-08-23T09:19:32;26.10;59.70
63219;DHT22;49320;52.512;13.448;2022-08-23T09:22:13;26.10;59.90
63219;DHT22;49320;52.512;13.448;2022-08-23T09:24:46;26.20;59.30
63219;DHT22;49320;52.512;13.448;2022-08-23T09:27:13;26.20;59.50
63219;DHT22;49320;52.512;13.448;2022-08-23T09:29:55;26.30;59.40
63219;DHT22;49320;52.512;13.448;2022-08-23T09:35:16;26.30;59.10
63219;DHT22;49320;52.512;13.448;2022-08-23T09:38:02;26.40;59.40
63219;DHT22;49320;52.512;13.448;2022-08-23T09:40:47;26.40;58.50
63219;DHT22;49320;52.512;13.448;2022-08-23T09:48:35;26.50;58.40
63219;DHT22;49320;52.512;13.448;2022-08-23T09:53:43;26.50;58.20
63219;DHT22;49320;52.512;13.448;2022-08-23T09:56:25;26.50;58.20
63219;DHT22;49320;52.512;13.448;2022-08-23T09:58:53;26.40;57.80
63219;DHT22;49320;52.512;13.448;2022-08-23T10:01:26;26.50;58.00
63219;DHT22;49320;52.512;13.448;2022-08-23T10:04:14;26.70;57.90
63219;DHT22;49320;52.512;13.448;2022-08-23T10:06:46;26.60;57.80
63219;DHT22;49320;52.512;13.448;2022-08-23T10:09:40;26.60;57.90
63219;DHT22;49320;52.512;13.448;2022-08-23T10:12:07;26.70;57.10
63219;DHT22;49320;52.512;13.448;2022-08-23T10:14:35;26.70;57.60
63219;DHT22;49320;52.512;13.448;2022-08-23T10:17:23;26.80;57.50
63219;DHT22;49320;52.512;13.448;2022-08-23T10:20:21;26.80;57.10
63219;DHT22;49320;52.512;13.448;2022-08-23T10:25:56;26.80;56.70
63219;DHT22;49320;52.512;13.448;2022-08-23T10:28:53;26.90;56.50
63219;DHT22;49320;52.512;13.448;2022-08-23T10:34:53;27.00;56.10
63219;DHT22;49320;52.512;13.448;2022-08-23T10:43:15;27.80;56.50
63219;DHT22;49320;52.512;13.448;2022-08-23T10:45:52;27.00;56.10
63219;DHT22;49320;52.512;13.448;2022-08-23T10:48:51;27.20;56.40
63219;DHT22;49320;52.512;13.448;2022-08-23T10:51:24;27.30;55.80
63219;DHT22;49320;52.512;13.448;2022-08-23T10:54:04;27.30;56.00
63219;DHT22;49320;52.512;13.448;2022-08-23T10:56:35;27.30;55.80
63219;DHT22;49320;52.512;13.448;2022-08-23T10:59:22;27.30;55.80
63219;DHT22;49320;52.512;13.448;2022-08-23T11:02:38;27.40;55.30
63219;DHT22;49320;52.512;13.448;2022-08-23T11:04:58;27.40;55.10
63219;DHT22;49320;52.512;13.448;2022-08-23T11:07:36;27.50;54.90
63219;DHT22;49320;52.512;13.448;2022-08-23T11:10:11;27.50;55.20
63219;DHT22;49320;52.512;13.448;2022-08-23T11:12:52;27.60;55.20
63219;DHT22;49320;52.512;13.448;2022-08-23T11:15:30;27.60;54.80
63219;DHT22;49320;52.512;13.448;2022-08-23T11:18:35;27.60;54.90
63219;DHT22;49320;52.512;13.448;2022-08-23T11:32:01;27.70;54.40
63219;DHT22;49320;52.512;13.448;2022-08-23T11:37:30;27.80;54.00
63219;DHT22;49320;52.512;13.448;2022-08-23T11:40:35;27.90;54.40
63219;DHT22;49320;52.512;13.448;2022-08-23T11:43:35;27.90;53.60
63219;DHT22;49320;52.512;13.448;2022-08-23T12:01:07;28.00;53.00
63219;DHT22;49320;52.512;13.448;2022-08-23T12:03:54;28.00;53.40
63219;DHT22;49320;52.512;13.448;2022-08-23T12:06:51;28.10;52.80
63219;DHT22;49320;52.512;13.448;2022-08-23T12:19:58;28.30;52.30
63219;DHT22;49320;52.512;13.448;2022-08-23T12:23:02;28.40;52.70
63219;DHT22;49320;52.512;13.448;2022-08-23T12:25:41;28.50;51.80
63219;DHT22;49320;52.512;13.448;2022-08-23T12:28:41;28.50;52.20
63219;DHT22;49320;52.512;13.448;2022-08-23T12:40:53;28.70;51.20
63219;DHT22;49320;52.512;13.448;2022-08-23T12:43:23;28.70;51.20
63219;DHT22;49320;52.512;13.448;2022-08-23T12:45:57;28.70;51.30
63219;DHT22;49320;52.512;13.448;2022-08-23T12:48:29;28.80;51.30
63219;DHT22;49320;52.512;13.448;2022-08-23T12:51:02;28.80;51.30
63219;DHT22;49320;52.512;13.448;2022-08-23T12:53:39;28.80;51.50
63219;DHT22;49320;52.512;13.448;2022-08-23T12:56:24;28.80;51.30
63219;DHT22;49320;52.512;13.448;2022-08-23T12:59:01;28.90;51.20
63219;DHT22;49320;52.512;13.448;2022-08-23T13:01:34;29.00;51.40
63219;DHT22;49320;52.512;13.448;2022-08-23T13:04:11;28.90;51.10
63219;DHT22;49320;52.512;13.448;2022-08-23T13:06:43;28.90;50.90
63219;DHT22;49320;52.512;13.448;2022-08-23T13:09:30;28.90;51.00
63219;DHT22;49320;52.512;13.448;2022-08-23T13:12:03;28.80;50.30
63219;DHT22;49320;52.512;13.448;2022-08-23T13:14:50;28.70;50.40
63219;DHT22;49320;52.512;13.448;2022-08-23T13:22:28;28.50;50.40
63219;DHT22;49320;52.512;13.448;2022-08-23T13:27:53;28.30;49.80
63219;DHT22;49320;52.512;13.448;2022-08-23T13:30:24;28.50;50.00
63219;DHT22;49320;52.512;13.448;2022-08-23T13:35:45;28.50;49.50
63219;DHT22;49320;52.512;13.448;2022-08-23T13:38:29;28.50;49.80
63219;DHT22;49320;52.512;13.448;2022-08-23T13:41:05;28.60;49.30
63219;DHT22;49320;52.512;13.448;2022-08-23T13:43:47;28.60;49.30
63219;DHT22;49320;52.512;13.448;2022-08-23T13:46:21;28.70;49.20
63219;DHT22;49320;52.512;13.448;2022-08-23T13:51:39;28.70;49.30
63219;DHT22;49320;52.512;13.448;2022-08-23T13:54:13;28.70;49.30
63219;DHT22;49320;52.512;13.448;2022-08-23T13:56:49;28.70;49.20
63219;DHT22;49320;52.512;13.448;2022-08-23T14:02:02;28.90;49.40
63219;DHT22;49320;52.512;13.448;2022-08-23T14:04:34;28.80;49.40
63219;DHT22;49320;52.512;13.448;2022-08-23T14:07:01;28.90;49.30
63219;DHT22;49320;52.512;13.448;2022-08-23T14:09:27;29.00;49.40
63219;DHT22;49320;52.512;13.448;2022-08-23T14:11:57;29.10;49.50
63219;DHT22;49320;52.512;13.448;2022-08-23T14:14:31;29.10;49.30
63219;DHT22;49320;52.512;13.448;2022-08-23T14:16:59;29.20;49.40
63219;DHT22;49320;52.512;13.448;2022-08-23T14:19:28;29.20;49.40
63219;DHT22;49320;52.512;13.448;2022-08-23T14:22:17;29.30;49.30
63219;DHT22;49320;52.512;13.448;2022-08-23T14:24:44;29.30;49.30
63219;DHT22;49320;52.512;13.448;2022-08-23T14:27:11;29.30;49.20
63219;DHT22;49320;52.512;13.448;2022-08-23T14:29:38;29.30;49.30
63219;DHT22;49320;52.512;13.448;2022-08-23T14:32:05;29.30;49.30
63219;DHT22;49320;52.512;13.448;2022-08-23T14:34:32;29.30;49.30
63219;DHT22;49320;52.512;13.448;2022-08-23T14:36:58;29.30;49.20
63219;DHT22;49320;52.512;13.448;2022-08-23T14:39:45;29.30;49.20
63219;DHT22;49320;52.512;13.448;2022-08-23T14:42:15;29.30;49.20
63219;DHT22;49320;52.512;13.448;2022-08-23T14:44:45;29.20;49.20
63219;DHT22;49320;52.512;13.448;2022-08-23T14:47:12;29.30;49.20
63219;DHT22;49320;52.512;13.448;2022-08-23T14:49:39;29.10;49.10
63219;DHT22;49320;52.512;13.448;2022-08-23T14:52:06;29.10;49.30
63219;DHT22;49320;52.512;13.448;2022-08-23T14:54:33;29.10;49.40
63219;DHT22;49320;52.512;13.448;2022-08-23T14:57:00;29.10;49.50
63219;DHT22;49320;52.512;13.448;2022-08-23T14:59:27;29.10;49.50
63219;DHT22;49320;52.512;13.448;2022-08-23T15:01:54;29.10;49.50
63219;DHT22;49320;52.512;13.448;2022-08-23T15:04:22;29.20;49.60
63219;DHT22;49320;52.512;13.448;2022-08-23T15:07:00;29.10;49.40
63219;DHT22;49320;52.512;13.448;2022-08-23T15:09:46;29.10;49.40
63219;DHT22;49320;52.512;13.448;2022-08-23T15:12:17;29.10;49.20
63219;DHT22;49320;52.512;13.448;2022-08-23T15:15:08;29.10;49.10
63219;DHT22;49320;52.512;13.448;2022-08-23T15:17:44;29.10;49.10
63219;DHT22;49320;52.512;13.448;2022-08-23T15:20:14;29.00;49.00
63219;DHT22;49320;52.512;13.448;2022-08-23T15:22:41;29.00;49.10
63219;DHT22;49320;52.512;13.448;2022-08-23T15:25:21;28.80;49.10
63219;DHT22;49320;52.512;13.448;2022-08-23T15:27:50;28.70;49.20
63219;DHT22;49320;52.512;13.448;2022-08-23T15:30:18;28.70;49.40
63219;DHT22;49320;52.512;13.448;2022-08-23T15:32:45;28.60;49.50
63219;DHT22;49320;52.512;13.448;2022-08-23T15:35:18;28.50;49.60
63219;DHT22;49320;52.512;13.448;2022-08-23T15:37:47;28.40;49.80
63219;DHT22;49320;52.512;13.448;2022-08-23T15:40:14;28.40;49.90
63219;DHT22;49320;52.512;13.448;2022-08-23T15:42:41;28.30;50.00
63219;DHT22;49320;52.512;13.448;2022-08-23T15:45:09;28.30;50.10
63219;DHT22;49320;52.512;13.448;2022-08-23T15:50:19;28.20;50.00
63219;DHT22;49320;52.512;13.448;2022-08-23T15:52:49;28.20;50.20
63219;DHT22;49320;52.512;13.448;2022-08-23T15:55:16;28.20;50.20
63219;DHT22;49320;52.512;13.448;2022-08-23T15:57:46;28.20;50.20
63219;DHT22;49320;52.512;13.448;2022-08-23T16:00:16;28.20;50.10
63219;DHT22;49320;52.512;13.448;2022-08-23T16:02:45;28.20;50.20
63219;DHT22;49320;52.512;13.448;2022-08-23T16:05:32;28.20;50.10
63219;DHT22;49320;52.512;13.448;2022-08-23T16:08:00;28.20;50.10
63219;DHT22;49320;52.512;13.448;2022-08-23T16:10:27;28.20;50.10
63219;DHT22;49320;52.512;13.448;2022-08-23T16:12:54;28.20;50.10
63219;DHT22;49320;52.512;13.448;2022-08-23T16:15:21;28.20;50.20
63219;DHT22;49320;52.512;13.448;2022-08-23T16:17:48;28.10;50.20
63219;DHT22;49320;52.512;13.448;2022-08-23T16:20:15;28.00;50.20
63219;DHT22;49320;52.512;13.448;2022-08-23T16:22:43;28.10;50.30
63219;DHT22;49320;52.512;13.448;2022-08-23T16:25:10;28.10;50.30
63219;DHT22;49320;52.512;13.448;2022-08-23T16:27:36;28.10;50.40
63219;DHT22;49320;52.512;13.448;2022-08-23T16:30:04;28.00;50.40
63219;DHT22;49320;52.512;13.448;2022-08-23T16:32:32;28.10;50.40
63219;DHT22;49320;52.512;13.448;2022-08-23T16:34:59;28.10;50.50
63219;DHT22;49320;52.512;13.448;2022-08-23T16:37:26;28.00;50.50
63219;DHT22;49320;52.512;13.448;2022-08-23T16:39:53;28.00;50.60
63219;DHT22;49320;52.512;13.448;2022-08-23T16:42:20;28.00;50.60
63219;DHT22;49320;52.512;13.448;2022-08-23T16:44:46;28.00;50.60
63219;DHT22;49320;52.512;13.448;2022-08-23T16:47:14;28.00;50.60
63219;DHT22;49320;52.512;13.448;2022-08-23T16:49:42;28.00;50.60
63219;DHT22;49320;52.512;13.448;2022-08-23T16:52:09;28.00;50.60
63219;DHT22;49320;52.512;13.448;2022-08-23T16:54:37;28.00;50.60
63219;DHT22;49320;52.512;13.448;2022-08-23T16:57:05;28.00;50.70
63219;DHT22;49320;52.512;13.448;2022-08-23T16:59:32;27.90;50.70
63219;DHT22;49320;52.512;13.448;2022-08-23T17:02:05;27.90;50.70
63219;DHT22;49320;52.512;13.448;2022-08-23T17:04:36;27.90;50.80
63219;DHT22;49320;52.512;13.448;2022-08-23T17:07:04;27.80;50.70
63219;DHT22;49320;52.512;13.448;2022-08-23T17:09:31;27.80;50.80
63219;DHT22;49320;52.512;13.448;2022-08-23T17:11:58;27.80;50.90
63219;DHT22;49320;52.512;13.448;2022-08-23T17:14:25;27.90;51.00
63219;DHT22;49320;52.512;13.448;2022-08-23T17:16:52;27.80;50.90
63219;DHT22;49320;52.512;13.448;2022-08-23T17:19:21;27.80;50.90
63219;DHT22;49320;52.512;13.448;2022-08-23T17:21:47;27.80;51.00
63219;DHT22;49320;52.512;13.448;2022-08-23T17:24:14;27.70;51.00
63219;DHT22;49320;52.512;13.448;2022-08-23T17:26:42;27.70;51.00
63219;DHT22;49320;52.512;13.448;2022-08-23T17:29:09;27.70;51.00